sensor_id;sensor_type;location;lat;lon;timestamp;P1;durP1;ratioP1;P2;durP2;ratioP2
79751;SDS011;69234;47.446;21.636;2023-05-25T00:00:20;10.37;;;10.37;;
79751;SDS011;69234;47.446;21.636;2023-05-25T00:00:51;10.13;;;10.13;;
79751;SDS011;69234;47.446;21.636;2023-05-25T00:01:22;9.17;;;9.17;;
79751;SDS011;69234;47.446;21.636;2023-05-25T00:01:53;9.50;;;9.50;;
79751;SDS011;69234;47.446;21.636;2023-05-25T00:02:25;9.53;;;9.53;;
79751;SDS011;69234;47.446;21.636;2023-05-25T00:02:55;9.80;;;9.80;;
79751;SDS011;69234;47.446;21.636;2023-05-25T00:03:26;10.10;;;10.10;;
79751;SDS011;69234;47.446;21.636;2023-05-25T00:03:57;9.90;;;9.90;;
79751;SDS011;69234;47.446;21.636;2023-05-25T00:04:29;9.67;;;9.67;;
79751;SDS011;69234;47.446;21.636;2023-05-25T00:05:03;9.47;;;9.37;;
79751;SDS011;69234;47.446;21.636;2023-05-25T00:05:37;9.27;;;9.20;;
79751;SDS011;69234;47.446;21.636;2023-05-25T00:06:08;8.77;;;8.77;;
79751;SDS011;69234;47.446;21.636;2023-05-25T00:06:39;9.20;;;9.20;;
79751;SDS011;69234;47.446;21.636;2023-05-25T00:07:11;9.30;;;9.30;;
79751;SDS011;69234;47.446;21.636;2023-05-25T00:07:41;10.33;;;10.10;;
79751;SDS011;69234;47.446;21.636;2023-05-25T00:08:12;10.30;;;10.10;;
79751;SDS011;69234;47.446;21.636;2023-05-25T00:08:43;9.57;;;9.57;;
79751;SDS011;69234;47.446;21.636;2023-05-25T00:09:15;9.63;;;9.63;;
79751;SDS011;69234;47.446;21.636;2023-05-25T00:09:46;10.00;;;10.00;;
79751;SDS011;69234;47.446;21.636;2023-05-25T00:10:16;10.47;;;10.47;;
79751;SDS011;69234;47.446;21.636;2023-05-25T00:10:47;10.70;;;10.70;;
79751;SDS011;69234;47.446;21.636;2023-05-25T00:11:18;10.03;;;10.03;;
79751;SDS011;69234;47.446;21.636;2023-05-25T00:11:52;9.53;;;9.53;;
79751;SDS011;69234;47.446;21.636;2023-05-25T00:12:23;9.93;;;9.93;;
79751;SDS011;69234;47.446;21.636;2023-05-25T00:12:54;11.03;;;10.83;;
79751;SDS011;69234;47.446;21.636;2023-05-25T00:13:26;9.90;;;9.90;;
79751;SDS011;69234;47.446;21.636;2023-05-25T00:13:56;10.00;;;10.00;;
79751;SDS011;69234;47.446;21.636;2023-05-25T00:14:27;10.20;;;10.20;;
79751;SDS011;69234;47.446;21.636;2023-05-25T00:15:00;10.30;;;10.30;;
79751;SDS011;69234;47.446;21.636;2023-05-25T00:15:30;10.30;;;10.30;;
79751;SDS011;69234;47.446;21.636;2023-05-25T00:16:01;10.77;;;10.73;;
79751;SDS011;69234;47.446;21.636;2023-05-25T00:16:32;10.57;;;10.57;;
79751;SDS011;69234;47.446;21.636;2023-05-25T00:17:06;10.83;;;10.60;;
79751;SDS011;69234;47.446;21.636;2023-05-25T00:17:39;11.07;;;10.70;;
79751;SDS011;69234;47.446;21.636;2023-05-25T00:18:10;11.43;;;11.20;;
79751;SDS011;69234;47.446;21.636;2023-05-25T00:18:42;10.80;;;10.70;;
79751;SDS011;69234;47.446;21.636;2023-05-25T00:19:13;10.73;;;10.53;;
79751;SDS011;69234;47.446;21.636;2023-05-25T00:19:44;11.63;;;11.27;;
79751;SDS011;69234;47.446;21.636;2023-05-25T00:20:15;11.97;;;11.60;;
79751;SDS011;69234;47.446;21.636;2023-05-25T00:20:47;11.13;;;10.93;;
79751;SDS011;69234;47.446;21.636;2023-05-25T00:21:17;10.97;;;10.83;;
79751;SDS011;69234;47.446;21.636;2023-05-25T00:21:49;11.50;;;11.47;;
79751;SDS011;69234;47.446;21.636;2023-05-25T00:22:21;11.37;;;11.07;;
79751;SDS011;69234;47.446;21.636;2023-05-25T00:22:51;11.73;;;11.57;;
79751;SDS011;69234;47.446;21.636;2023-05-25T00:23:25;11.33;;;11.33;;
79751;SDS011;69234;47.446;21.636;2023-05-25T00:23:56;10.97;;;10.73;;
79751;SDS011;69234;47.446;21.636;2023-05-25T00:24:27;11.23;;;11.13;;
79751;SDS011;69234;47.446;21.636;2023-05-25T00:25:02;11.67;;;11.67;;
79751;SDS011;69234;47.446;21.636;2023-05-25T00:25:35;11.10;;;11.07;;
79751;SDS011;69234;47.446;21.636;2023-05-25T00:26:06;11.57;;;11.57;;
79751;SDS011;69234;47.446;21.636;2023-05-25T00:26:37;11.47;;;11.47;;
79751;SDS011;69234;47.446;21.636;2023-05-25T00:27:08;12.07;;;12.07;;
79751;SDS011;69234;47.446;21.636;2023-05-25T00:27:38;12.27;;;12.27;;
79751;SDS011;69234;47.446;21.636;2023-05-25T00:28:10;12.03;;;12.03;;
79751;SDS011;69234;47.446;21.636;2023-05-25T00:28:41;12.93;;;12.93;;
79751;SDS011;69234;47.446;21.636;2023-05-25T00:29:12;12.23;;;12.23;;
79751;SDS011;69234;47.446;21.636;2023-05-25T00:29:44;12.63;;;12.53;;
79751;SDS011;69234;47.446;21.636;2023-05-25T00:30:15;13.53;;;13.20;;
79751;SDS011;69234;47.446;21.636;2023-05-25T00:30:45;13.07;;;13.00;;
79751;SDS011;69234;47.446;21.636;2023-05-25T00:31:16;13.30;;;13.00;;
79751;SDS011;69234;47.446;21.636;2023-05-25T00:31:47;13.10;;;12.63;;
79751;SDS011;69234;47.446;21.636;2023-05-25T00:32:19;12.90;;;12.83;;
79751;SDS011;69234;47.446;21.636;2023-05-25T00:32:50;14.33;;;14.03;;
79751;SDS011;69234;47.446;21.636;2023-05-25T00:33:23;13.87;;;13.47;;
79751;SDS011;69234;47.446;21.636;2023-05-25T00:33:53;13.50;;;13.10;;
79751;SDS011;69234;47.446;21.636;2023-05-25T00:34:24;13.77;;;13.27;;
79751;SDS011;69234;47.446;21.636;2023-05-25T00:34:55;13.70;;;13.20;;
79751;SDS011;69234;47.446;21.636;2023-05-25T00:35:26;13.97;;;13.40;;
79751;SDS011;69234;47.446;21.636;2023-05-25T00:35:56;14.97;;;14.40;;
79751;SDS011;69234;47.446;21.636;2023-05-25T00:36:27;15.53;;;15.07;;
79751;SDS011;69234;47.446;21.636;2023-05-25T00:36:58;14.70;;;14.20;;
79751;SDS011;69234;47.446;21.636;2023-05-25T00:37:30;14.20;;;14.17;;
79751;SDS011;69234;47.446;21.636;2023-05-25T00:38:01;14.80;;;14.80;;
79751;SDS011;69234;47.446;21.636;2023-05-25T00:38:32;15.10;;;14.93;;
79751;SDS011;69234;47.446;21.636;2023-05-25T00:39:02;14.30;;;14.00;;
79751;SDS011;69234;47.446;21.636;2023-05-25T00:39:33;14.27;;;14.10;;
79751;SDS011;69234;47.446;21.636;2023-05-25T00:40:05;15.23;;;14.83;;
79751;SDS011;69234;47.446;21.636;2023-05-25T00:40:42;15.40;;;15.23;;
79751;SDS011;69234;47.446;21.636;2023-05-25T00:41:13;14.80;;;14.43;;
79751;SDS011;69234;47.446;21.636;2023-05-25T00:41:47;16.30;;;15.77;;
79751;SDS011;69234;47.446;21.636;2023-05-25T00:42:18;16.87;;;16.37;;
79751;SDS011;69234;47.446;21.636;2023-05-25T00:42:50;16.03;;;15.53;;
79751;SDS011;69234;47.446;21.636;2023-05-25T00:43:22;15.37;;;14.93;;
79751;SDS011;69234;47.446;21.636;2023-05-25T00:43:52;15.60;;;15.20;;
79751;SDS011;69234;47.446;21.636;2023-05-25T00:44:23;15.47;;;14.90;;
79751;SDS011;69234;47.446;21.636;2023-05-25T00:44:55;15.37;;;14.83;;
79751;SDS011;69234;47.446;21.636;2023-05-25T00:45:26;15.13;;;14.83;;
79751;SDS011;69234;47.446;21.636;2023-05-25T00:45:57;16.03;;;16.03;;
79751;SDS011;69234;47.446;21.636;2023-05-25T00:46:28;15.73;;;15.70;;
79751;SDS011;69234;47.446;21.636;2023-05-25T00:46:59;15.87;;;15.67;;
79751;SDS011;69234;47.446;21.636;2023-05-25T00:47:33;16.67;;;16.10;;
79751;SDS011;69234;47.446;21.636;2023-05-25T00:48:05;16.83;;;16.13;;
79751;SDS011;69234;47.446;21.636;2023-05-25T00:48:36;15.73;;;15.57;;
79751;SDS011;69234;47.446;21.636;2023-05-25T00:49:08;15.97;;;15.93;;
79751;SDS011;69234;47.446;21.636;2023-05-25T00:49:44;16.37;;;16.23;;
79751;SDS011;69234;47.446;21.636;2023-05-25T00:50:14;16.93;;;16.93;;
79751;SDS011;69234;47.446;21.636;2023-05-25T00:50:46;16.80;;;16.80;;
79751;SDS011;69234;47.446;21.636;2023-05-25T00:51:17;17.17;;;17.13;;
79751;SDS011;69234;47.446;21.636;2023-05-25T00:51:48;18.23;;;17.87;;
79751;SDS011;69234;47.446;21.636;2023-05-25T00:52:21;18.07;;;17.57;;
79751;SDS011;69234;47.446;21.636;2023-05-25T00:52:52;18.13;;;17.57;;
79751;SDS011;69234;47.446;21.636;2023-05-25T00:53:23;18.07;;;17.40;;
79751;SDS011;69234;47.446;21.636;2023-05-25T00:53:54;19.00;;;18.20;;
79751;SDS011;69234;47.446;21.636;2023-05-25T00:54:25;18.53;;;17.80;;
79751;SDS011;69234;47.446;21.636;2023-05-25T00:54:57;18.07;;;17.47;;
79751;SDS011;69234;47.446;21.636;2023-05-25T00:55:43;19.03;;;18.53;;
79751;SDS011;69234;47.446;21.636;2023-05-25T00:56:22;17.40;;;17.27;;
79751;SDS011;69234;47.446;21.636;2023-05-25T00:57:00;18.03;;;17.80;;
79751;SDS011;69234;47.446;21.636;2023-05-25T00:57:35;18.27;;;17.80;;
79751;SDS011;69234;47.446;21.636;2023-05-25T00:58:10;18.90;;;18.20;;
79751;SDS011;69234;47.446;21.636;2023-05-25T00:58:45;19.80;;;19.10;;
79751;SDS011;69234;47.446;21.636;2023-05-25T00:59:27;18.73;;;18.17;;
79751;SDS011;69234;47.446;21.636;2023-05-25T01:00:18;19.57;;;18.87;;
79751;SDS011;69234;47.446;21.636;2023-05-25T01:00:50;19.37;;;18.73;;
79751;SDS011;69234;47.446;21.636;2023-05-25T01:01:26;19.27;;;18.60;;
79751;SDS011;69234;47.446;21.636;2023-05-25T01:02:02;19.57;;;18.87;;
79751;SDS011;69234;47.446;21.636;2023-05-25T01:02:37;19.83;;;19.17;;
79751;SDS011;69234;47.446;21.636;2023-05-25T01:03:13;19.50;;;18.93;;
79751;SDS011;69234;47.446;21.636;2023-05-25T01:03:54;19.37;;;18.70;;
79751;SDS011;69234;47.446;21.636;2023-05-25T01:04:27;19.37;;;18.90;;
79751;SDS011;69234;47.446;21.636;2023-05-25T01:05:00;19.70;;;19.30;;
79751;SDS011;69234;47.446;21.636;2023-05-25T01:05:34;19.90;;;19.27;;
79751;SDS011;69234;47.446;21.636;2023-05-25T01:06:08;20.73;;;20.10;;
79751;SDS011;69234;47.446;21.636;2023-05-25T01:06:44;21.20;;;20.50;;
79751;SDS011;69234;47.446;21.636;2023-05-25T01:07:22;20.47;;;19.80;;
79751;SDS011;69234;47.446;21.636;2023-05-25T01:07:56;19.63;;;19.50;;
79751;SDS011;69234;47.446;21.636;2023-05-25T01:08:32;20.80;;;20.20;;
79751;SDS011;69234;47.446;21.636;2023-05-25T01:09:05;21.50;;;20.87;;
79751;SDS011;69234;47.446;21.636;2023-05-25T01:09:40;21.37;;;20.73;;
79751;SDS011;69234;47.446;21.636;2023-05-25T01:10:15;22.33;;;21.63;;
79751;SDS011;69234;47.446;21.636;2023-05-25T01:10:52;22.47;;;21.73;;
79751;SDS011;69234;47.446;21.636;2023-05-25T01:11:33;22.00;;;21.43;;
79751;SDS011;69234;47.446;21.636;2023-05-25T01:12:06;22.67;;;21.87;;
79751;SDS011;69234;47.446;21.636;2023-05-25T01:12:39;22.37;;;21.53;;
79751;SDS011;69234;47.446;21.636;2023-05-25T01:13:13;21.33;;;20.67;;
79751;SDS011;69234;47.446;21.636;2023-05-25T01:13:51;21.53;;;20.77;;
79751;SDS011;69234;47.446;21.636;2023-05-25T01:14:23;22.13;;;21.30;;
79751;SDS011;69234;47.446;21.636;2023-05-25T01:14:55;22.17;;;21.53;;
79751;SDS011;69234;47.446;21.636;2023-05-25T01:15:29;21.47;;;21.17;;
79751;SDS011;69234;47.446;21.636;2023-05-25T01:16:01;21.93;;;21.70;;
79751;SDS011;69234;47.446;21.636;2023-05-25T01:16:32;21.77;;;21.43;;
79751;SDS011;69234;47.446;21.636;2023-05-25T01:17:05;23.57;;;23.00;;
79751;SDS011;69234;47.446;21.636;2023-05-25T01:17:36;22.87;;;22.13;;
79751;SDS011;69234;47.446;21.636;2023-05-25T01:18:08;22.97;;;22.10;;
79751;SDS011;69234;47.446;21.636;2023-05-25T01:18:44;23.13;;;22.23;;
79751;SDS011;69234;47.446;21.636;2023-05-25T01:19:14;24.27;;;23.20;;
79751;SDS011;69234;47.446;21.636;2023-05-25T01:19:46;24.87;;;23.80;;
79751;SDS011;69234;47.446;21.636;2023-05-25T01:20:17;23.03;;;22.20;;
79751;SDS011;69234;47.446;21.636;2023-05-25T01:20:55;23.67;;;22.93;;
79751;SDS011;69234;47.446;21.636;2023-05-25T01:21:54;24.53;;;23.70;;
79751;SDS011;69234;47.446;21.636;2023-05-25T01:23:25;24.50;;;23.67;;
79751;SDS011;69234;47.446;21.636;2023-05-25T01:24:07;23.63;;;22.80;;
79751;SDS011;69234;47.446;21.636;2023-05-25T01:25:06;25.37;;;24.40;;
79751;SDS011;69234;47.446;21.636;2023-05-25T01:25:50;24.47;;;23.63;;
79751;SDS011;69234;47.446;21.636;2023-05-25T01:26:27;25.37;;;24.53;;
79751;SDS011;69234;47.446;21.636;2023-05-25T01:28:32;24.17;;;23.87;;
79751;SDS011;69234;47.446;21.636;2023-05-25T01:29:09;27.10;;;26.23;;
79751;SDS011;69234;47.446;21.636;2023-05-25T01:29:43;25.03;;;24.67;;
79751;SDS011;69234;47.446;21.636;2023-05-25T01:30:16;25.60;;;24.97;;
79751;SDS011;69234;47.446;21.636;2023-05-25T01:30:50;25.77;;;25.00;;
79751;SDS011;69234;47.446;21.636;2023-05-25T01:31:22;25.20;;;24.70;;
79751;SDS011;69234;47.446;21.636;2023-05-25T01:31:53;25.73;;;25.17;;
79751;SDS011;69234;47.446;21.636;2023-05-25T01:32:27;24.97;;;24.30;;
79751;SDS011;69234;47.446;21.636;2023-05-25T01:33:01;25.30;;;24.60;;
79751;SDS011;69234;47.446;21.636;2023-05-25T01:33:33;27.00;;;26.27;;
79751;SDS011;69234;47.446;21.636;2023-05-25T01:34:06;27.13;;;26.37;;
79751;SDS011;69234;47.446;21.636;2023-05-25T01:34:40;26.17;;;25.27;;
79751;SDS011;69234;47.446;21.636;2023-05-25T01:35:13;27.10;;;26.37;;
79751;SDS011;69234;47.446;21.636;2023-05-25T01:35:45;27.67;;;26.87;;
79751;SDS011;69234;47.446;21.636;2023-05-25T01:36:18;28.47;;;27.50;;
79751;SDS011;69234;47.446;21.636;2023-05-25T01:36:50;28.00;;;27.07;;
79751;SDS011;69234;47.446;21.636;2023-05-25T01:37:21;28.10;;;27.20;;
79751;SDS011;69234;47.446;21.636;2023-05-25T01:37:53;27.90;;;26.80;;
79751;SDS011;69234;47.446;21.636;2023-05-25T01:38:25;27.43;;;26.40;;
79751;SDS011;69234;47.446;21.636;2023-05-25T01:38:56;28.03;;;27.07;;
79751;SDS011;69234;47.446;21.636;2023-05-25T01:39:27;29.37;;;28.30;;
79751;SDS011;69234;47.446;21.636;2023-05-25T01:39:58;28.37;;;27.30;;
79751;SDS011;69234;47.446;21.636;2023-05-25T01:40:29;27.77;;;26.67;;
79751;SDS011;69234;47.446;21.636;2023-05-25T01:40:59;27.40;;;26.47;;
79751;SDS011;69234;47.446;21.636;2023-05-25T01:41:30;28.77;;;27.90;;
79751;SDS011;69234;47.446;21.636;2023-05-25T01:42:01;29.37;;;28.50;;
79751;SDS011;69234;47.446;21.636;2023-05-25T01:42:32;28.07;;;27.20;;
79751;SDS011;69234;47.446;21.636;2023-05-25T01:43:03;28.33;;;27.63;;
79751;SDS011;69234;47.446;21.636;2023-05-25T01:43:36;28.10;;;27.20;;
79751;SDS011;69234;47.446;21.636;2023-05-25T01:44:07;29.17;;;28.17;;
79751;SDS011;69234;47.446;21.636;2023-05-25T01:44:38;29.40;;;28.47;;
79751;SDS011;69234;47.446;21.636;2023-05-25T01:45:10;29.50;;;28.83;;
79751;SDS011;69234;47.446;21.636;2023-05-25T01:45:44;29.87;;;29.47;;
79751;SDS011;69234;47.446;21.636;2023-05-25T01:46:24;30.67;;;30.00;;
79751;SDS011;69234;47.446;21.636;2023-05-25T01:47:15;29.53;;;28.90;;
79751;SDS011;69234;47.446;21.636;2023-05-25T01:48:14;30.07;;;29.30;;
79751;SDS011;69234;47.446;21.636;2023-05-25T01:51:01;31.90;;;30.63;;
79751;SDS011;69234;47.446;21.636;2023-05-25T01:52:35;32.03;;;30.90;;
79751;SDS011;69234;47.446;21.636;2023-05-25T01:53:13;31.63;;;30.47;;
79751;SDS011;69234;47.446;21.636;2023-05-25T01:53:52;31.07;;;30.13;;
79751;SDS011;69234;47.446;21.636;2023-05-25T01:54:33;30.77;;;29.77;;
79751;SDS011;69234;47.446;21.636;2023-05-25T01:55:10;31.17;;;30.60;;
79751;SDS011;69234;47.446;21.636;2023-05-25T01:55:47;31.10;;;30.30;;
79751;SDS011;69234;47.446;21.636;2023-05-25T01:56:28;31.23;;;30.37;;
79751;SDS011;69234;47.446;21.636;2023-05-25T01:57:01;30.50;;;29.53;;
79751;SDS011;69234;47.446;21.636;2023-05-25T01:57:40;31.50;;;30.53;;
79751;SDS011;69234;47.446;21.636;2023-05-25T01:58:15;32.50;;;31.47;;
79751;SDS011;69234;47.446;21.636;2023-05-25T01:58:48;32.17;;;31.23;;
79751;SDS011;69234;47.446;21.636;2023-05-25T01:59:20;33.10;;;32.07;;
79751;SDS011;69234;47.446;21.636;2023-05-25T01:59:52;35.00;;;33.83;;
79751;SDS011;69234;47.446;21.636;2023-05-25T02:00:31;32.63;;;31.67;;
79751;SDS011;69234;47.446;21.636;2023-05-25T02:01:05;32.23;;;31.37;;
79751;SDS011;69234;47.446;21.636;2023-05-25T02:01:38;32.30;;;31.40;;
79751;SDS011;69234;47.446;21.636;2023-05-25T02:02:13;32.97;;;31.87;;
79751;SDS011;69234;47.446;21.636;2023-05-25T02:02:49;33.23;;;31.87;;
79751;SDS011;69234;47.446;21.636;2023-05-25T02:03:21;33.93;;;32.63;;
79751;SDS011;69234;47.446;21.636;2023-05-25T02:03:52;32.87;;;31.83;;
79751;SDS011;69234;47.446;21.636;2023-05-25T02:04:24;32.83;;;31.73;;
79751;SDS011;69234;47.446;21.636;2023-05-25T02:04:57;33.47;;;32.27;;
79751;SDS011;69234;47.446;21.636;2023-05-25T02:05:28;35.40;;;33.90;;
79751;SDS011;69234;47.446;21.636;2023-05-25T02:06:00;35.00;;;33.57;;
79751;SDS011;69234;47.446;21.636;2023-05-25T02:06:31;33.97;;;32.73;;
79751;SDS011;69234;47.446;21.636;2023-05-25T02:07:05;32.77;;;31.47;;
79751;SDS011;69234;47.446;21.636;2023-05-25T02:07:36;33.13;;;31.57;;
79751;SDS011;69234;47.446;21.636;2023-05-25T02:08:07;33.17;;;31.77;;
79751;SDS011;69234;47.446;21.636;2023-05-25T02:08:38;34.23;;;33.00;;
79751;SDS011;69234;47.446;21.636;2023-05-25T02:09:08;33.97;;;32.63;;
79751;SDS011;69234;47.446;21.636;2023-05-25T02:09:39;34.33;;;33.07;;
79751;SDS011;69234;47.446;21.636;2023-05-25T02:10:10;34.40;;;33.07;;
79751;SDS011;69234;47.446;21.636;2023-05-25T02:10:41;34.73;;;33.50;;
79751;SDS011;69234;47.446;21.636;2023-05-25T02:11:12;35.00;;;33.77;;
79751;SDS011;69234;47.446;21.636;2023-05-25T02:11:43;33.90;;;32.77;;
79751;SDS011;69234;47.446;21.636;2023-05-25T02:12:14;32.83;;;31.70;;
79751;SDS011;69234;47.446;21.636;2023-05-25T02:12:45;32.97;;;31.63;;
79751;SDS011;69234;47.446;21.636;2023-05-25T02:13:16;34.10;;;32.63;;
79751;SDS011;69234;47.446;21.636;2023-05-25T02:13:47;34.43;;;33.13;;
79751;SDS011;69234;47.446;21.636;2023-05-25T02:14:17;34.73;;;33.67;;
79751;SDS011;69234;47.446;21.636;2023-05-25T02:14:48;35.23;;;33.97;;
79751;SDS011;69234;47.446;21.636;2023-05-25T02:15:20;35.20;;;33.93;;
79751;SDS011;69234;47.446;21.636;2023-05-25T02:15:51;34.10;;;32.70;;
79751;SDS011;69234;47.446;21.636;2023-05-25T02:16:22;34.47;;;33.10;;
79751;SDS011;69234;47.446;21.636;2023-05-25T02:16:55;35.23;;;33.67;;
79751;SDS011;69234;47.446;21.636;2023-05-25T02:17:26;34.97;;;33.63;;
79751;SDS011;69234;47.446;21.636;2023-05-25T02:17:59;35.13;;;34.00;;
79751;SDS011;69234;47.446;21.636;2023-05-25T02:18:32;34.53;;;33.40;;
79751;SDS011;69234;47.446;21.636;2023-05-25T02:19:03;33.27;;;32.23;;
79751;SDS011;69234;47.446;21.636;2023-05-25T02:19:34;33.10;;;32.07;;
79751;SDS011;69234;47.446;21.636;2023-05-25T02:20:05;33.43;;;32.43;;
79751;SDS011;69234;47.446;21.636;2023-05-25T02:20:37;34.60;;;33.43;;
79751;SDS011;69234;47.446;21.636;2023-05-25T02:21:08;34.53;;;33.23;;
79751;SDS011;69234;47.446;21.636;2023-05-25T02:21:40;35.90;;;34.53;;
79751;SDS011;69234;47.446;21.636;2023-05-25T02:22:11;36.80;;;35.60;;
79751;SDS011;69234;47.446;21.636;2023-05-25T02:22:42;35.33;;;34.27;;
79751;SDS011;69234;47.446;21.636;2023-05-25T02:23:13;34.80;;;33.80;;
79751;SDS011;69234;47.446;21.636;2023-05-25T02:23:44;35.60;;;34.53;;
79751;SDS011;69234;47.446;21.636;2023-05-25T02:24:15;35.13;;;34.00;;
79751;SDS011;69234;47.446;21.636;2023-05-25T02:24:46;34.53;;;33.50;;
79751;SDS011;69234;47.446;21.636;2023-05-25T02:25:17;34.90;;;33.80;;
79751;SDS011;69234;47.446;21.636;2023-05-25T02:25:47;35.03;;;34.10;;
79751;SDS011;69234;47.446;21.636;2023-05-25T02:26:20;33.93;;;32.97;;
79751;SDS011;69234;47.446;21.636;2023-05-25T02:26:51;36.00;;;34.77;;
79751;SDS011;69234;47.446;21.636;2023-05-25T02:27:23;35.47;;;34.13;;
79751;SDS011;69234;47.446;21.636;2023-05-25T02:27:54;35.93;;;34.63;;
79751;SDS011;69234;47.446;21.636;2023-05-25T02:28:24;34.67;;;33.57;;
79751;SDS011;69234;47.446;21.636;2023-05-25T02:28:55;35.07;;;34.03;;
79751;SDS011;69234;47.446;21.636;2023-05-25T02:29:26;35.50;;;34.50;;
79751;SDS011;69234;47.446;21.636;2023-05-25T02:29:57;35.60;;;34.47;;
79751;SDS011;69234;47.446;21.636;2023-05-25T02:30:30;36.53;;;35.03;;
79751;SDS011;69234;47.446;21.636;2023-05-25T02:31:01;37.23;;;35.67;;
79751;SDS011;69234;47.446;21.636;2023-05-25T02:31:32;34.70;;;33.37;;
79751;SDS011;69234;47.446;21.636;2023-05-25T02:32:03;35.07;;;33.97;;
79751;SDS011;69234;47.446;21.636;2023-05-25T02:32:35;34.43;;;33.57;;
79751;SDS011;69234;47.446;21.636;2023-05-25T02:33:06;36.03;;;34.93;;
79751;SDS011;69234;47.446;21.636;2023-05-25T02:33:38;34.70;;;33.30;;
79751;SDS011;69234;47.446;21.636;2023-05-25T02:34:09;36.03;;;34.73;;
79751;SDS011;69234;47.446;21.636;2023-05-25T02:34:40;34.70;;;33.33;;
79751;SDS011;69234;47.446;21.636;2023-05-25T02:35:11;35.33;;;33.77;;
79751;SDS011;69234;47.446;21.636;2023-05-25T02:35:42;36.63;;;35.17;;
79751;SDS011;69234;47.446;21.636;2023-05-25T02:36:14;36.80;;;35.47;;
79751;SDS011;69234;47.446;21.636;2023-05-25T02:36:45;36.93;;;35.57;;
79751;SDS011;69234;47.446;21.636;2023-05-25T02:37:16;35.57;;;34.40;;
79751;SDS011;69234;47.446;21.636;2023-05-25T02:37:47;34.40;;;33.30;;
79751;SDS011;69234;47.446;21.636;2023-05-25T02:38:18;35.07;;;34.07;;
79751;SDS011;69234;47.446;21.636;2023-05-25T02:38:49;35.13;;;34.17;;
79751;SDS011;69234;47.446;21.636;2023-05-25T02:39:21;35.57;;;34.60;;
79751;SDS011;69234;47.446;21.636;2023-05-25T02:39:53;36.20;;;35.10;;
79751;SDS011;69234;47.446;21.636;2023-05-25T02:40:24;35.70;;;34.33;;
79751;SDS011;69234;47.446;21.636;2023-05-25T02:40:56;36.87;;;35.30;;
79751;SDS011;69234;47.446;21.636;2023-05-25T02:41:28;36.60;;;35.10;;
79751;SDS011;69234;47.446;21.636;2023-05-25T02:41:58;35.30;;;33.97;;
79751;SDS011;69234;47.446;21.636;2023-05-25T02:42:30;36.70;;;35.43;;
79751;SDS011;69234;47.446;21.636;2023-05-25T02:43:02;36.00;;;34.77;;
79751;SDS011;69234;47.446;21.636;2023-05-25T02:43:33;35.60;;;34.50;;
79751;SDS011;69234;47.446;21.636;2023-05-25T02:44:04;35.70;;;34.57;;
79751;SDS011;69234;47.446;21.636;2023-05-25T02:44:35;36.77;;;35.57;;
79751;SDS011;69234;47.446;21.636;2023-05-25T02:45:08;34.43;;;33.40;;
79751;SDS011;69234;47.446;21.636;2023-05-25T02:45:44;36.33;;;35.03;;
79751;SDS011;69234;47.446;21.636;2023-05-25T02:46:16;36.77;;;35.40;;
79751;SDS011;69234;47.446;21.636;2023-05-25T02:46:46;35.60;;;34.33;;
79751;SDS011;69234;47.446;21.636;2023-05-25T02:47:17;35.63;;;34.53;;
79751;SDS011;69234;47.446;21.636;2023-05-25T02:47:48;36.17;;;35.10;;
79751;SDS011;69234;47.446;21.636;2023-05-25T02:48:19;36.33;;;35.20;;
79751;SDS011;69234;47.446;21.636;2023-05-25T02:48:51;36.17;;;35.07;;
79751;SDS011;69234;47.446;21.636;2023-05-25T02:49:22;37.23;;;36.00;;
79751;SDS011;69234;47.446;21.636;2023-05-25T02:49:52;35.90;;;34.67;;
79751;SDS011;69234;47.446;21.636;2023-05-25T02:50:23;35.27;;;34.13;;
79751;SDS011;69234;47.446;21.636;2023-05-25T02:50:57;36.60;;;35.23;;
79751;SDS011;69234;47.446;21.636;2023-05-25T02:51:28;35.67;;;34.33;;
79751;SDS011;69234;47.446;21.636;2023-05-25T02:52:01;35.57;;;34.43;;
79751;SDS011;69234;47.446;21.636;2023-05-25T02:52:32;35.43;;;34.20;;
79751;SDS011;69234;47.446;21.636;2023-05-25T02:53:03;35.40;;;34.10;;
79751;SDS011;69234;47.446;21.636;2023-05-25T02:53:34;36.93;;;35.63;;
79751;SDS011;69234;47.446;21.636;2023-05-25T02:54:06;37.07;;;35.93;;
79751;SDS011;69234;47.446;21.636;2023-05-25T02:54:37;37.03;;;35.80;;
79751;SDS011;69234;47.446;21.636;2023-05-25T02:55:10;35.83;;;34.70;;
79751;SDS011;69234;47.446;21.636;2023-05-25T02:55:43;36.17;;;35.17;;
79751;SDS011;69234;47.446;21.636;2023-05-25T02:56:17;35.30;;;34.27;;
79751;SDS011;69234;47.446;21.636;2023-05-25T02:56:48;36.77;;;35.50;;
79751;SDS011;69234;47.446;21.636;2023-05-25T02:57:21;36.60;;;35.23;;
79751;SDS011;69234;47.446;21.636;2023-05-25T02:57:52;35.47;;;34.13;;
79751;SDS011;69234;47.446;21.636;2023-05-25T02:58:41;36.63;;;35.23;;
79751;SDS011;69234;47.446;21.636;2023-05-25T02:59:16;37.80;;;36.13;;
79751;SDS011;69234;47.446;21.636;2023-05-25T02:59:49;37.13;;;35.70;;
79751;SDS011;69234;47.446;21.636;2023-05-25T03:00:20;37.93;;;36.67;;
79751;SDS011;69234;47.446;21.636;2023-05-25T03:00:51;38.90;;;37.33;;
79751;SDS011;69234;47.446;21.636;2023-05-25T03:01:23;38.80;;;37.27;;
79751;SDS011;69234;47.446;21.636;2023-05-25T03:01:57;37.23;;;36.03;;
79751;SDS011;69234;47.446;21.636;2023-05-25T03:02:29;37.10;;;35.87;;
79751;SDS011;69234;47.446;21.636;2023-05-25T03:03:00;36.27;;;34.93;;
79751;SDS011;69234;47.446;21.636;2023-05-25T03:03:30;36.80;;;35.47;;
79751;SDS011;69234;47.446;21.636;2023-05-25T03:04:01;37.00;;;35.60;;
79751;SDS011;69234;47.446;21.636;2023-05-25T03:04:36;36.27;;;34.73;;
79751;SDS011;69234;47.446;21.636;2023-05-25T03:05:08;36.90;;;35.40;;
79751;SDS011;69234;47.446;21.636;2023-05-25T03:05:40;37.33;;;36.07;;
79751;SDS011;69234;47.446;21.636;2023-05-25T03:06:11;37.63;;;36.20;;
79751;SDS011;69234;47.446;21.636;2023-05-25T03:06:43;37.17;;;35.83;;
79751;SDS011;69234;47.446;21.636;2023-05-25T03:07:18;37.23;;;35.87;;
79751;SDS011;69234;47.446;21.636;2023-05-25T03:07:57;36.90;;;35.73;;
79751;SDS011;69234;47.446;21.636;2023-05-25T03:08:28;36.93;;;35.77;;
79751;SDS011;69234;47.446;21.636;2023-05-25T03:09:02;36.13;;;34.83;;
79751;SDS011;69234;47.446;21.636;2023-05-25T03:09:36;37.90;;;36.37;;
79751;SDS011;69234;47.446;21.636;2023-05-25T03:10:08;37.70;;;36.23;;
79751;SDS011;69234;47.446;21.636;2023-05-25T03:10:40;37.60;;;36.27;;
79751;SDS011;69234;47.446;21.636;2023-05-25T03:11:11;37.90;;;36.27;;
79751;SDS011;69234;47.446;21.636;2023-05-25T03:11:42;38.73;;;36.87;;
79751;SDS011;69234;47.446;21.636;2023-05-25T03:12:17;37.33;;;36.10;;
79751;SDS011;69234;47.446;21.636;2023-05-25T03:12:48;35.43;;;35.13;;
79751;SDS011;69234;47.446;21.636;2023-05-25T03:13:19;36.70;;;36.00;;
79751;SDS011;69234;47.446;21.636;2023-05-25T03:13:50;37.60;;;36.50;;
79751;SDS011;69234;47.446;21.636;2023-05-25T03:14:23;37.67;;;36.40;;
79751;SDS011;69234;47.446;21.636;2023-05-25T03:14:59;37.47;;;36.23;;
79751;SDS011;69234;47.446;21.636;2023-05-25T03:15:30;38.53;;;37.10;;